KSDM

Brown Field Municipal Airport

San Diego, California, USA
METAR KSDM 200953Z AUTO 09004KT 10SM CLR 14/06 A3009 RMK AO2 SLP185 T01390056
Observed Flight Rules
Jan-20 @ 09:53 UTC (an hour ago) Visual Flight Rules
Wind Visibility Clouds
90° at 4 knots 10 miles
  • Clear skies
Temperatures Readings
Current 14°C / 57°F
Dewpoint 6°C / 43°F
Humidity 59%
Altimeter 30.09" Hg
Pressure 1018.5 hPa
Elevation 159
METAR KSDM 200953Z AUTO 09004KT 10SM CLR 14/06 A3009 RMK AO2 SLP185 T01390056
Observed Flight Rules
Jan-20 @ 09:53 UTC
(an hour ago)
VFR
Wind Visibility
90° at 4 knots 10 miles
Clouds
  • Clear skies
Temperature Dewpoint
14°C / 57°F 6°C / 43°F
Humidity Altimeter Pressure
59% 30.09" Hg 1018.5 hPa